sensor_id;sensor_type;location;lat;lon;timestamp;pressure;altitude;pressure_sealevel;temperature;humidity
26775;BME280;14362;51.902;7.626;2023-05-25T00:01:59;101900.31;;;11.99;100.00
26775;BME280;14362;51.902;7.626;2023-05-25T00:06:05;101903.81;;;11.91;100.00
26775;BME280;14362;51.902;7.626;2023-05-25T00:10:07;101896.97;;;11.83;100.00
26775;BME280;14362;51.902;7.626;2023-05-25T00:14:09;101897.34;;;11.77;100.00
26775;BME280;14362;51.902;7.626;2023-05-25T00:18:11;101891.31;;;11.70;100.00
26775;BME280;14362;51.902;7.626;2023-05-25T00:22:14;101881.06;;;11.65;100.00
26775;BME280;14362;51.902;7.626;2023-05-25T00:26:15;101885.38;;;11.58;100.00
26775;BME280;14362;51.902;7.626;2023-05-25T00:30:17;101895.25;;;11.50;100.00
26775;BME280;14362;51.902;7.626;2023-05-25T00:34:18;101894.47;;;11.45;100.00
26775;BME280;14362;51.902;7.626;2023-05-25T00:38:22;101891.63;;;11.31;100.00
26775;BME280;14362;51.902;7.626;2023-05-25T00:42:23;101900.72;;;11.18;100.00
26775;BME280;14362;51.902;7.626;2023-05-25T00:46:27;101898.91;;;11.09;100.00
26775;BME280;14362;51.902;7.626;2023-05-25T00:50:36;101907.03;;;11.06;100.00
26775;BME280;14362;51.902;7.626;2023-05-25T00:54:39;101894.53;;;11.03;100.00
26775;BME280;14362;51.902;7.626;2023-05-25T00:58:42;101905.50;;;10.95;100.00
26775;BME280;14362;51.902;7.626;2023-05-25T01:02:47;101899.63;;;10.96;100.00
26775;BME280;14362;51.902;7.626;2023-05-25T01:06:52;101907.00;;;10.87;100.00
26775;BME280;14362;51.902;7.626;2023-05-25T01:10:56;101917.69;;;10.80;100.00
26775;BME280;14362;51.902;7.626;2023-05-25T01:14:58;101921.44;;;10.71;100.00
26775;BME280;14362;51.902;7.626;2023-05-25T01:19:02;101912.53;;;10.69;100.00
26775;BME280;14362;51.902;7.626;2023-05-25T01:23:09;101915.56;;;10.72;100.00
26775;BME280;14362;51.902;7.626;2023-05-25T01:27:15;101924.28;;;10.66;100.00
26775;BME280;14362;51.902;7.626;2023-05-25T01:31:20;101922.97;;;10.58;100.00
26775;BME280;14362;51.902;7.626;2023-05-25T01:35:23;101918.56;;;10.52;100.00
26775;BME280;14362;51.902;7.626;2023-05-25T01:39:26;101924.50;;;10.46;100.00
26775;BME280;14362;51.902;7.626;2023-05-25T01:43:27;101915.91;;;10.42;100.00
26775;BME280;14362;51.902;7.626;2023-05-25T01:47:45;101915.97;;;10.37;100.00
26775;BME280;14362;51.902;7.626;2023-05-25T01:51:56;101922.34;;;10.38;100.00
26775;BME280;14362;51.902;7.626;2023-05-25T01:56:05;101916.88;;;10.28;100.00
26775;BME280;14362;51.902;7.626;2023-05-25T02:00:09;101922.22;;;10.24;100.00
26775;BME280;14362;51.902;7.626;2023-05-25T02:04:13;101912.44;;;10.27;100.00
26775;BME280;14362;51.902;7.626;2023-05-25T02:08:15;101918.13;;;10.17;100.00
26775;BME280;14362;51.902;7.626;2023-05-25T02:12:18;101916.47;;;10.16;100.00
26775;BME280;14362;51.902;7.626;2023-05-25T02:16:19;101918.75;;;10.09;100.00
26775;BME280;14362;51.902;7.626;2023-05-25T02:20:21;101917.84;;;10.14;100.00
26775;BME280;14362;51.902;7.626;2023-05-25T02:24:23;101912.41;;;10.04;100.00
26775;BME280;14362;51.902;7.626;2023-05-25T02:28:26;101913.53;;;9.98;100.00
26775;BME280;14362;51.902;7.626;2023-05-25T02:32:27;101905.75;;;9.95;100.00
26775;BME280;14362;51.902;7.626;2023-05-25T02:36:30;101910.56;;;9.84;100.00
26775;BME280;14362;51.902;7.626;2023-05-25T02:40:31;101925.41;;;9.75;100.00
26775;BME280;14362;51.902;7.626;2023-05-25T02:44:34;101930.44;;;9.73;100.00
26775;BME280;14362;51.902;7.626;2023-05-25T02:48:35;101934.13;;;9.63;100.00
26775;BME280;14362;51.902;7.626;2023-05-25T02:52:37;101933.53;;;9.66;100.00
26775;BME280;14362;51.902;7.626;2023-05-25T02:56:38;101927.16;;;9.66;100.00
26775;BME280;14362;51.902;7.626;2023-05-25T03:00:42;101944.22;;;9.54;100.00
26775;BME280;14362;51.902;7.626;2023-05-25T03:04:45;101935.03;;;9.54;100.00
26775;BME280;14362;51.902;7.626;2023-05-25T03:08:48;101944.47;;;9.58;100.00
26775;BME280;14362;51.902;7.626;2023-05-25T03:12:50;101945.00;;;9.60;100.00
26775;BME280;14362;51.902;7.626;2023-05-25T03:16:53;101964.56;;;9.50;100.00
26775;BME280;14362;51.902;7.626;2023-05-25T03:20:54;101963.81;;;9.34;100.00
26775;BME280;14362;51.902;7.626;2023-05-25T03:24:55;101963.81;;;9.39;100.00
26775;BME280;14362;51.902;7.626;2023-05-25T03:28:58;101972.72;;;9.36;100.00
26775;BME280;14362;51.902;7.626;2023-05-25T03:33:01;101977.16;;;9.37;100.00
26775;BME280;14362;51.902;7.626;2023-05-25T03:37:03;101972.16;;;9.34;100.00
26775;BME280;14362;51.902;7.626;2023-05-25T03:41:04;101975.75;;;9.35;100.00
26775;BME280;14362;51.902;7.626;2023-05-25T03:45:06;101981.38;;;9.30;100.00
26775;BME280;14362;51.902;7.626;2023-05-25T03:49:10;101977.44;;;9.36;100.00
26775;BME280;14362;51.902;7.626;2023-05-25T03:53:12;101977.97;;;9.38;100.00
26775;BME280;14362;51.902;7.626;2023-05-25T03:57:14;101974.94;;;9.39;100.00
26775;BME280;14362;51.902;7.626;2023-05-25T04:01:15;101984.06;;;9.45;100.00
26775;BME280;14362;51.902;7.626;2023-05-25T04:05:18;101983.22;;;9.49;100.00
26775;BME280;14362;51.902;7.626;2023-05-25T04:09:19;101981.88;;;9.42;100.00
26775;BME280;14362;51.902;7.626;2023-05-25T04:13:21;101994.41;;;9.39;100.00
26775;BME280;14362;51.902;7.626;2023-05-25T04:17:23;101994.13;;;9.41;100.00
26775;BME280;14362;51.902;7.626;2023-05-25T04:21:26;101989.94;;;9.43;100.00
26775;BME280;14362;51.902;7.626;2023-05-25T04:25:27;101988.53;;;9.46;100.00
26775;BME280;14362;51.902;7.626;2023-05-25T04:29:29;102003.25;;;9.46;100.00
26775;BME280;14362;51.902;7.626;2023-05-25T04:33:31;102004.91;;;9.52;100.00
26775;BME280;14362;51.902;7.626;2023-05-25T04:37:34;102000.69;;;9.55;100.00
26775;BME280;14362;51.902;7.626;2023-05-25T04:41:36;102017.63;;;9.68;100.00
26775;BME280;14362;51.902;7.626;2023-05-25T04:45:38;102022.03;;;9.79;100.00
26775;BME280;14362;51.902;7.626;2023-05-25T04:49:39;102023.47;;;9.72;100.00
26775;BME280;14362;51.902;7.626;2023-05-25T04:53:42;102023.69;;;9.80;100.00
26775;BME280;14362;51.902;7.626;2023-05-25T04:57:44;102024.97;;;9.93;100.00
26775;BME280;14362;51.902;7.626;2023-05-25T05:01:46;102024.63;;;10.04;100.00
26775;BME280;14362;51.902;7.626;2023-05-25T05:05:47;102021.47;;;10.20;100.00
26775;BME280;14362;51.902;7.626;2023-05-25T05:09:50;102028.13;;;10.24;100.00
26775;BME280;14362;51.902;7.626;2023-05-25T05:13:52;102034.16;;;10.31;100.00
26775;BME280;14362;51.902;7.626;2023-05-25T05:17:53;102039.38;;;10.43;100.00
26775;BME280;14362;51.902;7.626;2023-05-25T05:21:54;102036.63;;;10.66;100.00
26775;BME280;14362;51.902;7.626;2023-05-25T05:25:57;102037.38;;;10.77;100.00
26775;BME280;14362;51.902;7.626;2023-05-25T05:29:59;102037.38;;;11.28;100.00
26775;BME280;14362;51.902;7.626;2023-05-25T05:34:00;102035.00;;;11.82;100.00
26775;BME280;14362;51.902;7.626;2023-05-25T05:38:02;102038.53;;;12.06;100.00
26775;BME280;14362;51.902;7.626;2023-05-25T05:42:05;102043.16;;;12.47;100.00
26775;BME280;14362;51.902;7.626;2023-05-25T05:46:09;102045.72;;;13.08;100.00
26775;BME280;14362;51.902;7.626;2023-05-25T05:50:10;102045.94;;;13.38;100.00
26775;BME280;14362;51.902;7.626;2023-05-25T05:54:11;102062.22;;;13.49;100.00
26775;BME280;14362;51.902;7.626;2023-05-25T05:58:14;102064.00;;;13.19;100.00
26775;BME280;14362;51.902;7.626;2023-05-25T06:02:16;102072.25;;;12.97;100.00
26775;BME280;14362;51.902;7.626;2023-05-25T06:06:17;102089.19;;;12.55;100.00
26775;BME280;14362;51.902;7.626;2023-05-25T06:10:18;102089.38;;;12.26;100.00
26775;BME280;14362;51.902;7.626;2023-05-25T06:14:21;102089.97;;;12.05;100.00
26775;BME280;14362;51.902;7.626;2023-05-25T06:18:23;102090.00;;;11.82;100.00
26775;BME280;14362;51.902;7.626;2023-05-25T06:22:24;102097.38;;;11.96;100.00
26775;BME280;14362;51.902;7.626;2023-05-25T06:26:27;102093.66;;;12.01;100.00
26775;BME280;14362;51.902;7.626;2023-05-25T06:30:29;102094.66;;;12.10;100.00
26775;BME280;14362;51.902;7.626;2023-05-25T06:34:31;102096.25;;;12.16;100.00
26775;BME280;14362;51.902;7.626;2023-05-25T06:38:32;102094.28;;;12.16;100.00
26775;BME280;14362;51.902;7.626;2023-05-25T06:42:34;102098.28;;;12.28;100.00
26775;BME280;14362;51.902;7.626;2023-05-25T06:46:36;102093.22;;;12.12;100.00
26775;BME280;14362;51.902;7.626;2023-05-25T06:50:38;102096.94;;;12.26;100.00
26775;BME280;14362;51.902;7.626;2023-05-25T06:54:41;102100.03;;;12.24;100.00
26775;BME280;14362;51.902;7.626;2023-05-25T06:58:42;102105.94;;;12.23;100.00
26775;BME280;14362;51.902;7.626;2023-05-25T07:02:49;102106.22;;;12.40;100.00
26775;BME280;14362;51.902;7.626;2023-05-25T07:06:50;102109.00;;;12.40;100.00
26775;BME280;14362;51.902;7.626;2023-05-25T07:10:52;102109.44;;;12.47;100.00
26775;BME280;14362;51.902;7.626;2023-05-25T07:14:53;102118.81;;;12.37;100.00
26775;BME280;14362;51.902;7.626;2023-05-25T07:18:56;102113.72;;;12.26;100.00
26775;BME280;14362;51.902;7.626;2023-05-25T07:22:57;102113.22;;;12.56;100.00
26775;BME280;14362;51.902;7.626;2023-05-25T07:26:59;102117.41;;;12.40;100.00
26775;BME280;14362;51.902;7.626;2023-05-25T07:31:01;102124.56;;;12.46;100.00
26775;BME280;14362;51.902;7.626;2023-05-25T07:35:05;102119.28;;;12.44;100.00
26775;BME280;14362;51.902;7.626;2023-05-25T07:39:07;102130.69;;;12.66;100.00
26775;BME280;14362;51.902;7.626;2023-05-25T07:43:10;102130.53;;;12.58;100.00
26775;BME280;14362;51.902;7.626;2023-05-25T07:47:11;102126.16;;;12.52;100.00
26775;BME280;14362;51.902;7.626;2023-05-25T07:51:14;102136.81;;;12.50;100.00
26775;BME280;14362;51.902;7.626;2023-05-25T07:55:16;102134.47;;;12.57;100.00
26775;BME280;14362;51.902;7.626;2023-05-25T07:59:19;102146.63;;;12.66;100.00
26775;BME280;14362;51.902;7.626;2023-05-25T08:03:21;102143.59;;;12.81;100.00
26775;BME280;14362;51.902;7.626;2023-05-25T08:07:24;102158.47;;;12.76;100.00
26775;BME280;14362;51.902;7.626;2023-05-25T08:11:25;102157.13;;;12.74;100.00
26775;BME280;14362;51.902;7.626;2023-05-25T08:15:27;102141.56;;;12.68;100.00
26775;BME280;14362;51.902;7.626;2023-05-25T08:19:28;102150.84;;;12.82;100.00
26775;BME280;14362;51.902;7.626;2023-05-25T08:23:31;102150.59;;;12.78;100.00
26775;BME280;14362;51.902;7.626;2023-05-25T08:27:34;102152.72;;;12.86;100.00
26775;BME280;14362;51.902;7.626;2023-05-25T08:31:35;102151.03;;;12.90;100.00
26775;BME280;14362;51.902;7.626;2023-05-25T08:35:37;102154.69;;;12.86;100.00
26775;BME280;14362;51.902;7.626;2023-05-25T08:39:43;102159.84;;;12.97;100.00
26775;BME280;14362;51.902;7.626;2023-05-25T08:43:44;102155.94;;;13.12;100.00
26775;BME280;14362;51.902;7.626;2023-05-25T08:47:47;102164.44;;;13.07;100.00
26775;BME280;14362;51.902;7.626;2023-05-25T08:51:50;102170.75;;;13.12;100.00
26775;BME280;14362;51.902;7.626;2023-05-25T08:55:54;102158.88;;;13.20;100.00
26775;BME280;14362;51.902;7.626;2023-05-25T09:00:02;102166.94;;;13.22;100.00
26775;BME280;14362;51.902;7.626;2023-05-25T09:04:05;102170.09;;;13.33;100.00
26775;BME280;14362;51.902;7.626;2023-05-25T09:08:08;102177.59;;;13.38;100.00
26775;BME280;14362;51.902;7.626;2023-05-25T09:12:10;102167.03;;;13.48;100.00
26775;BME280;14362;51.902;7.626;2023-05-25T09:16:13;102174.31;;;13.63;100.00
26775;BME280;14362;51.902;7.626;2023-05-25T09:20:17;102170.88;;;13.79;100.00
26775;BME280;14362;51.902;7.626;2023-05-25T09:24:20;102164.97;;;13.81;100.00
26775;BME280;14362;51.902;7.626;2023-05-25T09:28:23;102159.28;;;13.86;100.00
26775;BME280;14362;51.902;7.626;2023-05-25T09:32:25;102172.00;;;14.05;100.00
26775;BME280;14362;51.902;7.626;2023-05-25T09:36:26;102180.22;;;13.88;100.00
26775;BME280;14362;51.902;7.626;2023-05-25T09:40:27;102173.38;;;13.81;100.00
26775;BME280;14362;51.902;7.626;2023-05-25T09:44:32;102166.72;;;13.90;100.00
26775;BME280;14362;51.902;7.626;2023-05-25T09:48:33;102169.00;;;13.88;100.00
26775;BME280;14362;51.902;7.626;2023-05-25T09:52:35;102176.81;;;13.91;100.00
26775;BME280;14362;51.902;7.626;2023-05-25T09:56:36;102175.84;;;13.82;100.00
26775;BME280;14362;51.902;7.626;2023-05-25T10:00:39;102180.31;;;13.97;100.00
26775;BME280;14362;51.902;7.626;2023-05-25T10:04:41;102186.22;;;14.09;100.00
26775;BME280;14362;51.902;7.626;2023-05-25T10:08:42;102180.66;;;13.95;100.00
26775;BME280;14362;51.902;7.626;2023-05-25T10:12:44;102189.97;;;13.91;100.00
26775;BME280;14362;51.902;7.626;2023-05-25T10:16:48;102193.81;;;13.81;100.00
26775;BME280;14362;51.902;7.626;2023-05-25T10:20:56;102203.69;;;13.92;100.00
26775;BME280;14362;51.902;7.626;2023-05-25T10:25:07;102196.72;;;14.03;100.00
26775;BME280;14362;51.902;7.626;2023-05-25T10:29:09;102196.94;;;13.93;100.00
26775;BME280;14362;51.902;7.626;2023-05-25T10:33:12;102208.38;;;13.97;100.00
26775;BME280;14362;51.902;7.626;2023-05-25T10:37:14;102199.38;;;14.13;100.00
26775;BME280;14362;51.902;7.626;2023-05-25T10:41:18;102201.22;;;14.18;100.00
26775;BME280;14362;51.902;7.626;2023-05-25T10:45:20;102201.53;;;14.16;100.00
26775;BME280;14362;51.902;7.626;2023-05-25T10:49:29;102207.97;;;14.30;100.00
26775;BME280;14362;51.902;7.626;2023-05-25T10:53:31;102203.50;;;14.64;100.00
26775;BME280;14362;51.902;7.626;2023-05-25T10:57:32;102201.94;;;14.72;100.00
26775;BME280;14362;51.902;7.626;2023-05-25T11:01:48;102200.63;;;14.91;100.00
26775;BME280;14362;51.902;7.626;2023-05-25T11:05:51;102202.09;;;14.89;100.00
26775;BME280;14362;51.902;7.626;2023-05-25T11:09:56;102202.34;;;15.01;100.00
26775;BME280;14362;51.902;7.626;2023-05-25T11:14:00;102203.25;;;15.10;100.00
26775;BME280;14362;51.902;7.626;2023-05-25T11:18:01;102188.56;;;15.13;100.00
26775;BME280;14362;51.902;7.626;2023-05-25T11:22:12;102191.63;;;15.25;100.00
26775;BME280;14362;51.902;7.626;2023-05-25T11:26:19;102180.31;;;15.68;100.00
26775;BME280;14362;51.902;7.626;2023-05-25T11:30:26;102181.59;;;15.93;100.00
26775;BME280;14362;51.902;7.626;2023-05-25T11:34:29;102175.50;;;15.99;100.00
26775;BME280;14362;51.902;7.626;2023-05-25T11:38:33;102160.13;;;16.14;100.00
26775;BME280;14362;51.902;7.626;2023-05-25T11:42:37;102158.28;;;16.01;100.00
26775;BME280;14362;51.902;7.626;2023-05-25T11:46:40;102157.75;;;15.90;93.92
26775;BME280;14362;51.902;7.626;2023-05-25T11:50:42;102151.38;;;16.07;98.04
26775;BME280;14362;51.902;7.626;2023-05-25T11:54:46;102138.97;;;16.16;89.46
26775;BME280;14362;51.902;7.626;2023-05-25T11:58:49;102149.78;;;16.31;89.25
26775;BME280;14362;51.902;7.626;2023-05-25T12:02:50;102138.53;;;16.31;94.49
26775;BME280;14362;51.902;7.626;2023-05-25T12:06:52;102140.53;;;16.39;97.26
26775;BME280;14362;51.902;7.626;2023-05-25T12:11:02;102138.53;;;16.40;100.00
26775;BME280;14362;51.902;7.626;2023-05-25T12:15:04;102124.63;;;16.51;92.10
26775;BME280;14362;51.902;7.626;2023-05-25T12:19:06;102122.13;;;16.92;83.07
26775;BME280;14362;51.902;7.626;2023-05-25T12:23:08;102129.59;;;16.97;82.69
26775;BME280;14362;51.902;7.626;2023-05-25T12:27:18;102119.69;;;16.74;84.63
26775;BME280;14362;51.902;7.626;2023-05-25T12:31:22;102132.59;;;16.75;92.21
26775;BME280;14362;51.902;7.626;2023-05-25T12:35:24;102134.28;;;16.59;89.03
26775;BME280;14362;51.902;7.626;2023-05-25T12:39:33;102126.47;;;16.56;92.27
26775;BME280;14362;51.902;7.626;2023-05-25T12:43:39;102120.81;;;16.90;88.57
26775;BME280;14362;51.902;7.626;2023-05-25T12:47:44;102117.16;;;17.06;84.28
26775;BME280;14362;51.902;7.626;2023-05-25T12:51:46;102123.94;;;17.14;81.19
26775;BME280;14362;51.902;7.626;2023-05-25T12:55:47;102104.72;;;17.16;89.19
26775;BME280;14362;51.902;7.626;2023-05-25T12:59:55;102111.59;;;17.44;82.11
26775;BME280;14362;51.902;7.626;2023-05-25T13:03:56;102108.25;;;17.50;81.51
26775;BME280;14362;51.902;7.626;2023-05-25T13:07:58;102118.13;;;17.36;78.84
26775;BME280;14362;51.902;7.626;2023-05-25T13:12:00;102103.34;;;17.30;74.12
26775;BME280;14362;51.902;7.626;2023-05-25T13:16:04;102094.66;;;17.52;76.61
26775;BME280;14362;51.902;7.626;2023-05-25T13:20:06;102092.06;;;17.76;76.50
26775;BME280;14362;51.902;7.626;2023-05-25T13:24:07;102090.50;;;17.87;76.83
26775;BME280;14362;51.902;7.626;2023-05-25T13:28:09;102091.13;;;17.63;79.30
26775;BME280;14362;51.902;7.626;2023-05-25T13:32:12;102103.59;;;17.54;80.04
26775;BME280;14362;51.902;7.626;2023-05-25T13:36:13;102093.44;;;17.61;78.95
26775;BME280;14362;51.902;7.626;2023-05-25T13:40:15;102084.91;;;17.78;85.66
26775;BME280;14362;51.902;7.626;2023-05-25T13:44:16;102082.69;;;17.92;77.00
26775;BME280;14362;51.902;7.626;2023-05-25T13:48:19;102087.28;;;17.97;72.03
26775;BME280;14362;51.902;7.626;2023-05-25T13:52:21;102091.28;;;17.96;72.87
26775;BME280;14362;51.902;7.626;2023-05-25T13:56:22;102092.78;;;17.64;78.46
26775;BME280;14362;51.902;7.626;2023-05-25T14:00:24;102095.66;;;17.48;80.17
26775;BME280;14362;51.902;7.626;2023-05-25T14:04:26;102082.56;;;17.51;76.06
26775;BME280;14362;51.902;7.626;2023-05-25T14:08:28;102071.03;;;17.65;73.49
26775;BME280;14362;51.902;7.626;2023-05-25T14:12:30;102072.81;;;17.98;76.59
26775;BME280;14362;51.902;7.626;2023-05-25T14:16:32;102064.84;;;18.00;73.94
26775;BME280;14362;51.902;7.626;2023-05-25T14:20:34;102070.56;;;18.12;71.04
26775;BME280;14362;51.902;7.626;2023-05-25T14:24:37;102067.47;;;17.76;72.06
26775;BME280;14362;51.902;7.626;2023-05-25T14:28:39;102054.41;;;17.72;67.55
26775;BME280;14362;51.902;7.626;2023-05-25T14:32:40;102058.22;;;17.76;68.98
26775;BME280;14362;51.902;7.626;2023-05-25T14:36:43;102045.28;;;17.75;70.69
26775;BME280;14362;51.902;7.626;2023-05-25T14:40:44;102055.03;;;18.06;68.71
26775;BME280;14362;51.902;7.626;2023-05-25T14:44:46;102057.81;;;18.35;67.59
26775;BME280;14362;51.902;7.626;2023-05-25T14:48:47;102057.91;;;18.18;65.93
26775;BME280;14362;51.902;7.626;2023-05-25T14:52:50;102055.53;;;17.79;75.46
26775;BME280;14362;51.902;7.626;2023-05-25T14:56:51;102059.63;;;17.90;74.06
26775;BME280;14362;51.902;7.626;2023-05-25T15:00:53;102058.59;;;18.15;70.09
26775;BME280;14362;51.902;7.626;2023-05-25T15:04:54;102056.38;;;18.29;64.99
26775;BME280;14362;51.902;7.626;2023-05-25T15:08:57;102036.31;;;18.22;64.50
26775;BME280;14362;51.902;7.626;2023-05-25T15:12:58;102052.50;;;18.54;64.72
26775;BME280;14362;51.902;7.626;2023-05-25T15:17:00;102048.81;;;18.74;65.73
26775;BME280;14362;51.902;7.626;2023-05-25T15:21:02;102046.94;;;18.78;66.18
26775;BME280;14362;51.902;7.626;2023-05-25T15:25:05;102047.91;;;18.82;66.17
26775;BME280;14362;51.902;7.626;2023-05-25T15:29:07;102047.53;;;18.51;65.60
26775;BME280;14362;51.902;7.626;2023-05-25T15:33:08;102040.25;;;18.30;64.71
26775;BME280;14362;51.902;7.626;2023-05-25T15:37:09;102038.47;;;18.25;70.59
26775;BME280;14362;51.902;7.626;2023-05-25T15:41:14;102033.66;;;18.46;63.92
26775;BME280;14362;51.902;7.626;2023-05-25T15:45:15;102029.94;;;18.34;65.58
26775;BME280;14362;51.902;7.626;2023-05-25T15:49:17;102035.84;;;18.41;66.25
26775;BME280;14362;51.902;7.626;2023-05-25T15:53:19;102025.38;;;18.41;65.39
26775;BME280;14362;51.902;7.626;2023-05-25T15:57:24;102014.91;;;18.42;65.07
26775;BME280;14362;51.902;7.626;2023-05-25T16:01:25;102016.91;;;18.41;70.19
26775;BME280;14362;51.902;7.626;2023-05-25T16:05:27;102021.78;;;18.52;67.71
26775;BME280;14362;51.902;7.626;2023-05-25T16:09:29;102014.31;;;18.68;69.20
26775;BME280;14362;51.902;7.626;2023-05-25T16:13:32;102010.97;;;18.87;63.18
26775;BME280;14362;51.902;7.626;2023-05-25T16:17:33;102017.41;;;18.43;69.99
26775;BME280;14362;51.902;7.626;2023-05-25T16:21:34;102019.94;;;18.36;65.21
26775;BME280;14362;51.902;7.626;2023-05-25T16:25:36;102014.97;;;18.13;65.82
26775;BME280;14362;51.902;7.626;2023-05-25T16:29:39;102014.59;;;18.14;66.87
26775;BME280;14362;51.902;7.626;2023-05-25T16:33:41;102027.03;;;18.42;65.15
26775;BME280;14362;51.902;7.626;2023-05-25T16:37:43;102023.03;;;18.43;66.35
26775;BME280;14362;51.902;7.626;2023-05-25T16:41:45;102018.75;;;18.57;67.59
26775;BME280;14362;51.902;7.626;2023-05-25T16:45:47;102018.13;;;18.52;69.74
26775;BME280;14362;51.902;7.626;2023-05-25T16:49:49;102015.53;;;18.47;65.49
26775;BME280;14362;51.902;7.626;2023-05-25T16:53:50;102017.41;;;18.43;67.56
26775;BME280;14362;51.902;7.626;2023-05-25T16:57:51;102016.16;;;18.32;69.57
26775;BME280;14362;51.902;7.626;2023-05-25T17:01:54;102020.13;;;18.31;69.40
26775;BME280;14362;51.902;7.626;2023-05-25T17:05:56;102018.97;;;18.32;72.76
26775;BME280;14362;51.902;7.626;2023-05-25T17:09:57;102013.69;;;18.31;72.15
26775;BME280;14362;51.902;7.626;2023-05-25T17:13:58;102018.03;;;18.60;65.51
26775;BME280;14362;51.902;7.626;2023-05-25T17:18:01;102015.94;;;18.57;68.32
26775;BME280;14362;51.902;7.626;2023-05-25T17:22:03;102015.66;;;18.51;70.62
26775;BME280;14362;51.902;7.626;2023-05-25T17:26:05;102012.91;;;18.42;70.30
26775;BME280;14362;51.902;7.626;2023-05-25T17:30:08;102014.25;;;18.24;69.12
26775;BME280;14362;51.902;7.626;2023-05-25T17:34:10;102017.28;;;18.40;70.72
26775;BME280;14362;51.902;7.626;2023-05-25T17:38:12;102014.84;;;18.30;70.80
26775;BME280;14362;51.902;7.626;2023-05-25T17:42:13;102012.88;;;18.30;71.16
26775;BME280;14362;51.902;7.626;2023-05-25T17:46:16;102004.50;;;18.13;73.07
26775;BME280;14362;51.902;7.626;2023-05-25T17:50:18;102007.38;;;18.05;74.10
26775;BME280;14362;51.902;7.626;2023-05-25T17:54:20;102007.88;;;18.07;75.15
26775;BME280;14362;51.902;7.626;2023-05-25T17:58:24;102012.06;;;18.21;73.57
26775;BME280;14362;51.902;7.626;2023-05-25T18:02:27;102012.88;;;18.22;71.61
26775;BME280;14362;51.902;7.626;2023-05-25T18:06:30;102012.28;;;18.16;73.72
26775;BME280;14362;51.902;7.626;2023-05-25T18:10:32;102011.31;;;18.12;76.43
26775;BME280;14362;51.902;7.626;2023-05-25T18:14:33;102011.66;;;18.11;72.99
26775;BME280;14362;51.902;7.626;2023-05-25T18:18:36;102010.00;;;17.89;72.42
26775;BME280;14362;51.902;7.626;2023-05-25T18:22:39;102010.81;;;17.90;70.07
26775;BME280;14362;51.902;7.626;2023-05-25T18:26:41;102026.88;;;17.69;74.69
26775;BME280;14362;51.902;7.626;2023-05-25T18:30:43;102025.72;;;17.70;73.39
26775;BME280;14362;51.902;7.626;2023-05-25T18:34:44;102027.81;;;17.52;76.67
26775;BME280;14362;51.902;7.626;2023-05-25T18:38:48;102036.13;;;17.49;76.54
26775;BME280;14362;51.902;7.626;2023-05-25T18:42:50;102036.81;;;17.38;77.17
26775;BME280;14362;51.902;7.626;2023-05-25T18:46:51;102028.38;;;17.38;78.44
26775;BME280;14362;51.902;7.626;2023-05-25T18:50:54;102040.03;;;17.19;83.56
26775;BME280;14362;51.902;7.626;2023-05-25T18:54:57;102040.09;;;17.02;85.76
26775;BME280;14362;51.902;7.626;2023-05-25T18:58:59;102046.56;;;17.03;89.21
26775;BME280;14362;51.902;7.626;2023-05-25T19:03:00;102044.13;;;16.84;91.50
26775;BME280;14362;51.902;7.626;2023-05-25T19:07:01;102039.31;;;16.85;88.44
26775;BME280;14362;51.902;7.626;2023-05-25T19:11:04;102043.31;;;16.67;83.96
26775;BME280;14362;51.902;7.626;2023-05-25T19:15:07;102051.47;;;16.60;87.15
26775;BME280;14362;51.902;7.626;2023-05-25T19:19:08;102056.41;;;16.46;88.15
26775;BME280;14362;51.902;7.626;2023-05-25T19:23:10;102063.06;;;16.42;89.93
26775;BME280;14362;51.902;7.626;2023-05-25T19:27:13;102054.13;;;16.31;90.39
26775;BME280;14362;51.902;7.626;2023-05-25T19:31:14;102066.00;;;16.28;89.43
26775;BME280;14362;51.902;7.626;2023-05-25T19:35:16;102067.63;;;16.12;92.35
26775;BME280;14362;51.902;7.626;2023-05-25T19:39:17;102071.44;;;16.08;92.48
26775;BME280;14362;51.902;7.626;2023-05-25T19:43:20;102083.00;;;15.98;93.18
26775;BME280;14362;51.902;7.626;2023-05-25T19:47:21;102088.13;;;15.96;92.54
26775;BME280;14362;51.902;7.626;2023-05-25T19:51:23;102084.78;;;15.85;91.78
26775;BME280;14362;51.902;7.626;2023-05-25T19:55:24;102092.41;;;15.85;91.96
26775;BME280;14362;51.902;7.626;2023-05-25T19:59:27;102088.09;;;15.79;92.49
26775;BME280;14362;51.902;7.626;2023-05-25T20:03:30;102094.81;;;15.61;95.68
26775;BME280;14362;51.902;7.626;2023-05-25T20:07:31;102096.13;;;15.55;97.28
26775;BME280;14362;51.902;7.626;2023-05-25T20:11:32;102108.41;;;15.29;96.47
26775;BME280;14362;51.902;7.626;2023-05-25T20:15:35;102110.44;;;15.45;95.53
26775;BME280;14362;51.902;7.626;2023-05-25T20:19:37;102109.78;;;15.18;99.38
26775;BME280;14362;51.902;7.626;2023-05-25T20:23:38;102111.44;;;15.19;97.77
26775;BME280;14362;51.902;7.626;2023-05-25T20:27:39;102116.63;;;15.03;98.39
26775;BME280;14362;51.902;7.626;2023-05-25T20:31:42;102116.78;;;14.76;100.00
26775;BME280;14362;51.902;7.626;2023-05-25T20:35:43;102124.00;;;14.91;98.91
26775;BME280;14362;51.902;7.626;2023-05-25T20:39:45;102124.91;;;14.64;100.00
26775;BME280;14362;51.902;7.626;2023-05-25T20:43:46;102127.88;;;14.59;100.00
26775;BME280;14362;51.902;7.626;2023-05-25T20:47:57;102129.84;;;14.59;100.00
26775;BME280;14362;51.902;7.626;2023-05-25T20:51:58;102123.38;;;14.36;100.00
26775;BME280;14362;51.902;7.626;2023-05-25T20:56:00;102135.06;;;14.17;100.00
26775;BME280;14362;51.902;7.626;2023-05-25T21:00:02;102144.38;;;14.26;100.00